This is the latest recevied weather packets stored in our database for station/object WX7FGZ-6. If no packets are shown the sender has not sent any weather packets the latest 10 day(s).
| Time | Temp. | Humidity | Pressure | Rain* | Wind** | Luminosity | Snow |
|---|---|---|---|---|---|---|---|
| 1777665024 | 4.44° C | 40% | 1020.5 hPa | 0 mm | - | - | - |
| 1777664724 | 3.89° C | 43% | 1020.4 hPa | 0 mm | - | - | - |
| 1777664424 | 3.89° C | 43% | 1020.4 hPa | 0 mm | - | - | - |
| 1777664124 | 3.33° C | 44% | 1020.6 hPa | 0 mm | - | - | - |
| 1777663824 | 3.33° C | 44% | 1020.5 hPa | 0 mm | - | - | - |
| 1777663524 | 3.89° C | 41% | 1020.4 hPa | 0 mm | - | - | - |
| 1777663207 | 3.89° C | 43% | 1020.4 hPa | 0 mm | - | - | - |
| 1777662907 | 3.89° C | 46% | 1020.4 hPa | 0 mm | - | - | - |
| 1777662607 | 3.33° C | 48% | 1020.3 hPa | 0 mm | - | - | - |
| 1777662307 | 2.78° C | 50% | 1020.3 hPa | 0 mm | - | - | - |
| 1777662298 | 2.22° C | 48% | 1020.3 hPa | 0 mm | - | - | - |
| 1777662007 | 2.22° C | 48% | 1020.3 hPa | 0 mm | - | - | - |
| 1777661707 | 2.22° C | 47% | 1020.6 hPa | 0 mm | - | - | - |
| 1777661407 | 2.22° C | 45% | 1020.7 hPa | 0 mm | - | - | - |
| 1777661107 | 2.78° C | 44% | 1020.6 hPa | 0 mm | - | - | - |
| 1777660806 | 2.78° C | 46% | 1020.7 hPa | 0 mm | - | - | - |
| 1777660507 | 2.78° C | 45% | 1020.8 hPa | 0 mm | - | - | - |
| 1777660272 | 3.33° C | 44% | 1020.9 hPa | 0 mm | - | - | - |
| 1777659932 | 3.33° C | 44% | 1020.9 hPa | 0 mm | - | - | - |
| 1777659905 | 3.33° C | 44% | 1020.9 hPa | 0 mm | - | - | - |
| 1777659605 | 3.33° C | 44% | 1020.9 hPa | 0 mm | - | - | - |
| 1777659305 | 3.33° C | 45% | 1020.9 hPa | 0 mm | - | - | - |
| 1777659005 | 3.33° C | 44% | 1020.9 hPa | 0 mm | - | - | - |
| 1777658705 | 3.33° C | 44% | 1020.8 hPa | 0 mm | - | - | - |
| 1777658405 | 3.33° C | 44% | 1020.8 hPa | 0 mm | - | - | - |
* Rain latest hour (hover to see other rain measurements)
** Current wind speed in m/s (hover to see current wind gust speed)